createdAt,value
2023-02-19T00:01:08.978Z,7.63
2023-02-19T00:03:36.040Z,8.05
2023-02-19T00:06:03.579Z,7.82
2023-02-19T00:08:31.240Z,7.07
2023-02-19T00:11:05.185Z,7.18
2023-02-19T00:13:35.226Z,8.05
2023-02-19T00:16:05.736Z,7.43
2023-02-19T00:18:32.041Z,6.95
2023-02-19T00:20:58.348Z,6.80
2023-02-19T00:23:24.864Z,8.10
2023-02-19T00:25:51.112Z,6.53
2023-02-19T00:28:17.426Z,7.57
2023-02-19T00:30:43.778Z,7.13
2023-02-19T00:33:10.205Z,7.05
2023-02-19T00:35:36.641Z,6.57
2023-02-19T00:38:02.945Z,7.38
2023-02-19T00:40:29.668Z,7.15
2023-02-19T00:42:55.904Z,5.53
2023-02-19T00:45:22.148Z,6.57
2023-02-19T00:47:48.550Z,7.60
2023-02-19T00:50:14.927Z,6.47
2023-02-19T00:52:41.228Z,4.15
2023-02-19T00:55:07.597Z,6.28
2023-02-19T00:57:33.866Z,5.28
2023-02-19T01:00:00.178Z,6.93
2023-02-19T01:02:26.837Z,7.03
2023-02-19T01:04:53.250Z,8.85
2023-02-19T01:07:19.502Z,7.28
2023-02-19T01:09:45.778Z,7.68
2023-02-19T01:12:12.180Z,7.50
2023-02-19T01:14:38.479Z,8.32
2023-02-19T01:17:04.794Z,7.53
2023-02-19T01:19:31.069Z,7.75
2023-02-19T01:21:57.489Z,8.00
2023-02-19T01:24:23.801Z,6.40
2023-02-19T01:26:50.083Z,6.65
2023-02-19T01:29:16.327Z,5.53
2023-02-19T01:31:42.718Z,5.97
2023-02-19T01:34:10.392Z,6.38
2023-02-19T01:36:37.673Z,6.40
2023-02-19T01:39:05.051Z,5.53
2023-02-19T01:41:32.228Z,5.57
2023-02-19T01:44:00.352Z,5.20
2023-02-19T01:46:28.136Z,5.43
2023-02-19T01:48:55.323Z,5.32
2023-02-19T01:51:22.257Z,5.28
2023-02-19T01:53:51.733Z,5.05
2023-02-19T01:56:18.682Z,4.32
2023-02-19T01:58:45.249Z,5.45
2023-02-19T02:01:11.934Z,5.22
2023-02-19T02:03:40.408Z,4.30
2023-02-19T02:06:19.067Z,4.60
2023-02-19T02:09:04.140Z,3.88
2023-02-19T02:11:30.536Z,5.10
2023-02-19T02:13:57.529Z,3.90
2023-02-19T02:16:23.925Z,4.38
2023-02-19T02:19:12.870Z,4.93
2023-02-19T02:21:53.244Z,4.28
2023-02-19T02:24:28.611Z,3.42
2023-02-19T02:27:13.803Z,3.15
2023-02-19T02:29:49.347Z,3.60
2023-02-19T02:32:17.179Z,3.08
2023-02-19T02:34:53.412Z,3.22
2023-02-19T02:37:19.764Z,3.88
2023-02-19T02:39:46.879Z,2.75
2023-02-19T02:42:28.475Z,2.33
2023-02-19T02:45:17.667Z,2.60
2023-02-19T02:47:44.787Z,3.08
2023-02-19T02:50:23.460Z,2.60
2023-02-19T02:53:11.474Z,3.05
2023-02-19T02:55:40.502Z,2.38
2023-02-19T02:58:07.569Z,2.50
2023-02-19T03:00:54.725Z,2.50
2023-02-19T03:03:22.674Z,2.47
2023-02-19T03:05:53.370Z,2.55
2023-02-19T03:08:19.579Z,2.75
2023-02-19T03:11:24.126Z,2.83
2023-02-19T03:14:14.154Z,3.17
2023-02-19T03:17:01.463Z,1.95
2023-02-19T03:19:28.603Z,3.00
2023-02-19T03:21:56.774Z,2.00
2023-02-19T03:24:44.922Z,3.60
2023-02-19T03:27:12.735Z,2.72
2023-02-19T03:29:40.452Z,3.40
2023-02-19T03:32:15.174Z,2.80
2023-02-19T03:34:43.956Z,2.63
2023-02-19T03:37:15.939Z,2.58
2023-02-19T03:39:45.374Z,2.63
2023-02-19T03:42:11.642Z,3.72
2023-02-19T03:44:44.471Z,2.92
2023-02-19T03:47:40.123Z,3.58
2023-02-19T03:50:15.684Z,2.95
2023-02-19T03:52:47.132Z,3.45
2023-02-19T03:55:17.164Z,3.20
2023-02-19T03:57:55.386Z,2.17
2023-02-19T04:00:24.757Z,3.40
2023-02-19T04:02:58.078Z,3.95
2023-02-19T04:05:29.499Z,2.90
2023-02-19T04:07:58.376Z,2.72
2023-02-19T04:10:25.172Z,2.55
2023-02-19T04:12:57.625Z,2.40
2023-02-19T04:15:27.593Z,3.10
2023-02-19T04:18:05.984Z,2.17
2023-02-19T04:20:34.071Z,2.38
2023-02-19T04:23:00.409Z,3.25
2023-02-19T04:25:27.568Z,2.83
2023-02-19T04:27:54.333Z,2.42
2023-02-19T04:30:21.284Z,3.80
2023-02-19T04:32:47.612Z,2.13
2023-02-19T04:35:14.031Z,2.60
2023-02-19T04:37:40.456Z,2.15
2023-02-19T04:40:06.999Z,3.00
2023-02-19T04:42:33.338Z,3.33
2023-02-19T04:44:59.640Z,4.65
2023-02-19T04:47:25.880Z,1.58
2023-02-19T04:49:52.139Z,3.55
2023-02-19T04:52:18.521Z,3.78
2023-02-19T04:54:44.832Z,2.22
2023-02-19T04:57:11.175Z,3.30
2023-02-19T04:59:37.544Z,2.92
2023-02-19T05:02:03.795Z,2.80
2023-02-19T05:04:30.160Z,3.30
2023-02-19T05:06:56.502Z,3.33
2023-02-19T05:09:22.806Z,2.10
2023-02-19T05:11:49.117Z,3.00
2023-02-19T05:14:15.468Z,3.65
2023-02-19T05:16:41.762Z,2.30
2023-02-19T05:19:10.562Z,3.10
2023-02-19T05:21:36.970Z,2.50
2023-02-19T05:24:03.395Z,2.40
2023-02-19T05:26:31.238Z,3.75
2023-02-19T05:28:57.696Z,3.92
2023-02-19T05:31:24.694Z,3.20
2023-02-19T05:33:52.866Z,3.10
2023-02-19T05:36:20.188Z,3.70
2023-02-19T05:38:46.656Z,3.42
2023-02-19T05:41:17.183Z,2.85
2023-02-19T05:43:44.569Z,3.45
2023-02-19T05:46:11.646Z,3.00
2023-02-19T05:48:37.978Z,2.80
2023-02-19T05:51:05.900Z,2.47
2023-02-19T05:53:32.280Z,2.88
2023-02-19T05:55:58.739Z,2.72
2023-02-19T05:58:25.150Z,2.55
2023-02-19T06:00:51.445Z,2.65
2023-02-19T06:03:18.113Z,3.42
2023-02-19T06:05:44.409Z,2.90
2023-02-19T06:08:14.359Z,2.72
2023-02-19T06:10:43.610Z,2.43
2023-02-19T06:13:10.240Z,3.50
2023-02-19T06:15:37.083Z,2.85
2023-02-19T06:18:03.905Z,2.70
2023-02-19T06:20:30.197Z,3.15
2023-02-19T06:22:56.577Z,2.92
2023-02-19T06:25:22.866Z,2.72
2023-02-19T06:27:49.106Z,2.90
2023-02-19T06:30:15.416Z,2.42
2023-02-19T06:32:41.913Z,3.20
2023-02-19T06:35:08.499Z,2.65
2023-02-19T06:37:34.740Z,2.58
2023-02-19T06:40:01.243Z,3.00
2023-02-19T06:42:27.672Z,2.60
2023-02-19T06:44:53.956Z,2.72
2023-02-19T06:47:20.216Z,2.53
2023-02-19T06:49:46.479Z,2.50
2023-02-19T06:52:12.709Z,2.63
2023-02-19T06:54:39.000Z,2.55
2023-02-19T06:57:05.316Z,2.42
2023-02-19T06:59:31.575Z,2.45
2023-02-19T07:01:57.931Z,2.47
2023-02-19T07:04:24.302Z,2.22
2023-02-19T07:06:50.636Z,3.42
2023-02-19T07:09:16.919Z,2.90
2023-02-19T07:11:43.278Z,3.20
2023-02-19T07:14:14.088Z,3.28
2023-02-19T07:19:06.856Z,3.05
2023-02-19T07:21:37.809Z,3.80
2023-02-19T07:24:05.368Z,3.40
2023-02-19T07:26:31.950Z,3.30
2023-02-19T07:28:58.299Z,4.82
2023-02-19T07:31:24.909Z,3.65
2023-02-19T07:33:51.428Z,3.63
2023-02-19T07:36:18.339Z,4.65
2023-02-19T07:38:45.047Z,4.43
2023-02-19T07:41:11.999Z,4.03
2023-02-19T07:43:38.978Z,3.30
2023-02-19T07:46:06.456Z,3.92
2023-02-19T07:48:34.181Z,4.72
2023-02-19T07:51:01.056Z,4.43
2023-02-19T07:53:27.856Z,3.78
2023-02-19T07:55:54.323Z,4.30
2023-02-19T07:58:20.759Z,3.90
2023-02-19T08:00:47.246Z,4.78
2023-02-19T08:03:13.750Z,4.93
2023-02-19T08:05:41.136Z,4.18
2023-02-19T08:08:08.692Z,4.70
2023-02-19T08:10:53.804Z,3.92
2023-02-19T08:13:22.295Z,5.40
2023-02-19T08:15:50.300Z,4.45
2023-02-19T08:18:17.200Z,5.20
2023-02-19T08:20:43.963Z,5.13
2023-02-19T08:23:10.964Z,5.90
2023-02-19T08:25:37.636Z,5.25
2023-02-19T08:28:04.466Z,6.05
2023-02-19T08:30:31.680Z,4.90
2023-02-19T08:33:00.687Z,4.82
2023-02-19T08:35:28.262Z,4.70
2023-02-19T08:37:58.316Z,4.55
2023-02-19T08:40:25.652Z,5.30
2023-02-19T08:42:51.932Z,4.70
2023-02-19T08:45:18.280Z,5.03
2023-02-19T08:47:44.961Z,5.22
2023-02-19T08:50:11.410Z,3.90
2023-02-19T08:52:37.849Z,3.30
2023-02-19T08:55:05.103Z,3.88
2023-02-19T08:57:31.657Z,4.70
2023-02-19T08:59:58.011Z,4.40
2023-02-19T09:02:24.666Z,3.97
2023-02-19T09:04:50.955Z,4.90
2023-02-19T09:07:17.556Z,4.00
2023-02-19T09:09:43.861Z,6.07
2023-02-19T09:12:12.184Z,4.60
2023-02-19T09:14:38.523Z,5.20
2023-02-19T09:17:06.041Z,5.35
2023-02-19T09:19:32.635Z,2.90
2023-02-19T09:21:58.980Z,5.00
2023-02-19T09:24:25.616Z,3.95
2023-02-19T09:26:52.536Z,5.00
2023-02-19T09:29:19.267Z,5.10
2023-02-19T09:31:45.851Z,4.25
2023-02-19T09:34:12.366Z,3.60
2023-02-19T09:36:38.877Z,3.92
2023-02-19T09:39:07.541Z,3.60
2023-02-19T09:41:35.163Z,3.63
2023-02-19T09:44:02.773Z,4.53
2023-02-19T09:46:29.138Z,3.17
2023-02-19T09:48:58.609Z,3.30
2023-02-19T09:51:26.769Z,3.60
2023-02-19T09:53:53.957Z,3.40
2023-02-19T09:56:20.277Z,3.40
2023-02-19T09:58:49.779Z,2.63
2023-02-19T10:01:16.273Z,2.60
2023-02-19T10:03:47.477Z,2.50
2023-02-19T10:06:32.044Z,2.22
2023-02-19T10:09:18.232Z,2.33
2023-02-19T10:11:45.007Z,3.03
2023-02-19T10:14:16.248Z,2.15
2023-02-19T10:16:44.402Z,2.40
2023-02-19T10:19:11.681Z,2.90
2023-02-19T10:21:38.197Z,2.50
2023-02-19T10:24:05.504Z,3.00
2023-02-19T10:26:35.272Z,2.58
2023-02-19T10:29:02.019Z,1.60
2023-02-19T10:31:28.415Z,2.35
2023-02-19T10:33:56.288Z,1.67
2023-02-19T10:36:22.713Z,2.47
2023-02-19T10:38:49.011Z,1.80
2023-02-19T10:41:20.939Z,1.65
2023-02-19T10:43:55.696Z,1.50
2023-02-19T10:46:24.105Z,1.25
2023-02-19T10:48:52.978Z,1.30
2023-02-19T10:51:22.867Z,1.15
2023-02-19T10:53:50.350Z,1.10
2023-02-19T10:56:23.588Z,1.05
2023-02-19T10:58:50.512Z,1.45
2023-02-19T11:01:16.804Z,1.85
2023-02-19T11:03:43.090Z,1.48
2023-02-19T11:06:10.836Z,1.60
2023-02-19T11:08:46.279Z,1.38
2023-02-19T11:11:33.016Z,1.17
2023-02-19T11:14:00.750Z,1.30
2023-02-19T11:16:46.959Z,1.02
2023-02-19T11:19:36.438Z,1.15
2023-02-19T11:22:17.933Z,1.08
2023-02-19T11:24:47.917Z,1.00
2023-02-19T11:27:18.563Z,1.40
2023-02-19T11:29:44.795Z,1.55
2023-02-19T11:32:20.554Z,1.40
2023-02-19T11:34:47.685Z,1.13
2023-02-19T11:37:17.763Z,1.58
2023-02-19T11:39:45.098Z,1.40
2023-02-19T11:42:23.841Z,1.10
2023-02-19T11:44:50.085Z,1.17
2023-02-19T11:47:16.275Z,1.67
2023-02-19T11:49:53.236Z,1.73
2023-02-19T11:52:19.699Z,0.95
2023-02-19T11:54:52.571Z,1.10
2023-02-19T11:57:27.320Z,1.00
2023-02-19T12:00:00.497Z,1.50
2023-02-19T12:02:26.763Z,1.25
2023-02-19T12:04:55.952Z,1.30
2023-02-19T12:07:25.127Z,1.25
2023-02-19T12:09:51.386Z,1.52
2023-02-19T12:12:38.035Z,1.50
2023-02-19T12:15:20.162Z,1.15
2023-02-19T12:18:07.758Z,1.13
2023-02-19T12:20:49.309Z,1.13
2023-02-19T12:23:30.924Z,1.20
2023-02-19T12:26:07.014Z,0.80
2023-02-19T12:28:36.498Z,0.70
2023-02-19T12:31:02.892Z,0.80
2023-02-19T12:33:36.145Z,0.90
2023-02-19T12:36:02.478Z,1.15
2023-02-19T12:38:36.188Z,1.00
2023-02-19T12:41:02.472Z,0.80
2023-02-19T12:43:29.434Z,1.00
2023-02-19T12:46:01.412Z,1.20
2023-02-19T12:48:33.560Z,1.10
2023-02-19T12:51:07.059Z,1.15
2023-02-19T12:53:33.375Z,1.23
2023-02-19T12:56:00.965Z,1.13
2023-02-19T12:58:30.362Z,1.25
2023-02-19T13:00:59.610Z,1.70
2023-02-19T13:03:39.530Z,2.65
2023-02-19T13:06:24.534Z,1.08
2023-02-19T13:09:06.419Z,1.27
2023-02-19T13:11:37.315Z,1.30
2023-02-19T13:14:07.051Z,1.50
2023-02-19T13:16:35.037Z,0.82
2023-02-19T13:19:02.951Z,1.08
2023-02-19T13:21:49.750Z,0.98
2023-02-19T13:24:21.285Z,0.70
2023-02-19T13:27:14.529Z,0.90
2023-02-19T13:29:40.807Z,0.85
2023-02-19T13:32:07.213Z,0.85
2023-02-19T13:34:47.667Z,1.20
2023-02-19T13:37:14.840Z,1.08
2023-02-19T13:39:51.457Z,0.57
2023-02-19T13:42:26.368Z,0.82
2023-02-19T13:44:57.735Z,0.60
2023-02-19T13:47:43.624Z,1.40
2023-02-19T13:50:16.860Z,1.50
2023-02-19T13:52:43.714Z,1.30
2023-02-19T13:55:28.690Z,1.05
2023-02-19T13:58:14.921Z,1.10
2023-02-19T14:00:49.463Z,0.93
2023-02-19T14:03:26.450Z,0.95
2023-02-19T14:06:00.492Z,1.08
2023-02-19T14:08:45.589Z,0.98
2023-02-19T14:11:14.236Z,1.40
2023-02-19T14:13:49.377Z,1.35
2023-02-19T14:16:32.368Z,1.40
2023-02-19T14:18:58.732Z,1.00
2023-02-19T14:21:46.443Z,1.00
2023-02-19T14:24:14.588Z,1.05
2023-02-19T14:26:41.373Z,0.93
2023-02-19T14:29:09.114Z,0.75
2023-02-19T14:31:36.862Z,0.93
2023-02-19T14:34:04.870Z,1.27
2023-02-19T14:36:33.845Z,0.80
2023-02-19T14:39:03.359Z,1.10
2023-02-19T14:41:31.826Z,1.60
2023-02-19T14:43:59.017Z,1.02
2023-02-19T14:46:29.520Z,1.15
2023-02-19T14:48:57.990Z,0.90
2023-02-19T14:51:27.225Z,1.20
2023-02-19T14:53:54.177Z,1.05
2023-02-19T14:56:25.564Z,1.10
2023-02-19T14:59:10.464Z,0.73
2023-02-19T15:01:37.014Z,0.80
2023-02-19T15:04:03.572Z,1.40
2023-02-19T15:06:31.593Z,1.63
2023-02-19T15:08:59.800Z,1.60
2023-02-19T15:11:27.842Z,2.13
2023-02-19T15:13:56.163Z,1.50
2023-02-19T15:16:25.717Z,1.52
2023-02-19T15:18:53.135Z,1.42
2023-02-19T15:21:23.268Z,1.77
2023-02-19T15:23:49.943Z,1.40
2023-02-19T15:26:21.061Z,1.63
2023-02-19T15:28:56.282Z,1.40
2023-02-19T15:31:22.686Z,1.60
2023-02-19T15:33:50.302Z,1.50
2023-02-19T15:36:19.760Z,1.23
2023-02-19T15:38:46.039Z,1.80
2023-02-19T15:41:19.700Z,0.95
2023-02-19T15:43:51.092Z,0.70
2023-02-19T15:46:25.067Z,1.20
2023-02-19T15:49:11.597Z,1.20
2023-02-19T15:51:43.320Z,1.30
2023-02-19T15:54:16.777Z,1.20
2023-02-19T15:56:44.608Z,1.20
2023-02-19T15:59:24.304Z,1.70
2023-02-19T16:01:50.749Z,1.33
2023-02-19T16:04:18.542Z,1.40
2023-02-19T16:06:55.971Z,1.40
2023-02-19T16:09:24.085Z,2.40
2023-02-19T16:11:55.199Z,1.58
2023-02-19T16:14:34.704Z,2.30
2023-02-19T16:17:13.156Z,1.70
2023-02-19T16:19:45.250Z,1.85
2023-02-19T16:22:12.722Z,2.72
2023-02-19T16:24:50.161Z,2.30
2023-02-19T16:27:31.712Z,1.83
2023-02-19T16:29:58.335Z,3.08
2023-02-19T16:32:24.840Z,2.08
2023-02-19T16:34:51.605Z,2.10
2023-02-19T16:37:35.077Z,3.22
2023-02-19T16:40:07.193Z,2.92
2023-02-19T16:42:34.100Z,3.30
2023-02-19T16:45:00.405Z,4.30
2023-02-19T16:47:28.796Z,3.30
2023-02-19T16:49:55.586Z,2.60
2023-02-19T16:52:22.104Z,2.90
2023-02-19T16:54:49.084Z,3.80
2023-02-19T16:57:15.652Z,3.80
2023-02-19T16:59:41.965Z,2.92
2023-02-19T17:02:10.177Z,3.20
2023-02-19T17:04:36.571Z,5.20
2023-02-19T17:07:03.029Z,4.00
2023-02-19T17:09:29.569Z,4.53
2023-02-19T17:11:55.856Z,3.72
2023-02-19T17:14:22.466Z,2.72
2023-02-19T17:16:48.767Z,2.42
2023-02-19T17:19:16.710Z,3.63
2023-02-19T17:21:44.283Z,3.65
2023-02-19T17:24:10.849Z,4.60
2023-02-19T17:26:37.215Z,2.65
2023-02-19T17:29:05.025Z,4.55
2023-02-19T17:31:34.421Z,5.30
2023-02-19T17:34:00.928Z,3.45
2023-02-19T17:36:30.596Z,6.28
2023-02-19T17:38:57.768Z,13.43
2023-02-19T17:41:24.143Z,23.33
2023-02-19T17:43:50.533Z,10.00
2023-02-19T17:46:21.535Z,11.45
2023-02-19T17:48:48.121Z,8.63
2023-02-19T17:51:14.909Z,6.88
2023-02-19T17:53:41.709Z,12.25
2023-02-19T17:56:08.173Z,8.45
2023-02-19T17:58:34.776Z,11.57
2023-02-19T18:01:01.019Z,6.00
2023-02-19T18:03:27.367Z,6.03
2023-02-19T18:05:54.143Z,4.07
2023-02-19T18:08:20.466Z,3.95
2023-02-19T18:10:46.778Z,3.72
2023-02-19T18:13:13.316Z,2.33
2023-02-19T18:15:39.596Z,2.13
2023-02-19T18:18:05.941Z,3.50
2023-02-19T18:20:32.329Z,2.20
2023-02-19T18:22:58.757Z,1.85
2023-02-19T18:25:25.121Z,3.50
2023-02-19T18:27:51.444Z,3.22
2023-02-19T18:30:18.957Z,4.30
2023-02-19T18:32:48.018Z,5.28
2023-02-19T18:35:15.024Z,7.68
2023-02-19T18:37:41.388Z,8.68
2023-02-19T18:40:08.122Z,4.90
2023-02-19T18:42:34.536Z,3.53
2023-02-19T18:45:00.851Z,3.90
2023-02-19T18:47:27.373Z,4.80
2023-02-19T18:49:55.181Z,6.88
2023-02-19T18:52:24.834Z,4.72
2023-02-19T18:54:51.778Z,7.60
2023-02-19T18:57:19.175Z,10.80
2023-02-19T18:59:45.696Z,3.63
2023-02-19T19:02:12.101Z,7.95
2023-02-19T19:04:38.779Z,5.13
2023-02-19T19:07:06.056Z,3.35
2023-02-19T19:09:32.704Z,6.90
2023-02-19T19:11:59.223Z,4.80
2023-02-19T19:14:25.543Z,3.95
2023-02-19T19:16:51.983Z,5.88
2023-02-19T19:19:19.592Z,5.00
2023-02-19T19:21:53.484Z,5.97
2023-02-19T19:24:20.660Z,6.00
2023-02-19T19:26:49.426Z,6.43
2023-02-19T19:29:16.427Z,16.50
2023-02-19T19:31:43.166Z,12.32
2023-02-19T19:34:10.217Z,17.30
2023-02-19T19:36:36.721Z,18.33
2023-02-19T19:39:03.074Z,3.33
2023-02-19T19:41:29.611Z,2.90
2023-02-19T19:43:55.875Z,2.80
2023-02-19T19:46:22.252Z,4.03
2023-02-19T19:48:49.846Z,4.05
2023-02-19T19:51:16.414Z,2.92
2023-02-19T19:53:42.903Z,7.88
2023-02-19T19:56:09.283Z,3.03
2023-02-19T19:58:37.271Z,5.15
2023-02-19T20:01:03.691Z,3.67
2023-02-19T20:03:30.410Z,3.00
2023-02-19T20:05:57.589Z,3.40
2023-02-19T20:08:23.873Z,2.63
2023-02-19T20:10:50.380Z,1.98
2023-02-19T20:13:17.716Z,2.45
2023-02-19T20:15:44.148Z,2.42
2023-02-19T20:18:10.524Z,2.25
2023-02-19T20:20:36.791Z,3.33
2023-02-19T20:23:03.049Z,3.25
2023-02-19T20:25:29.329Z,3.30
2023-02-19T20:27:55.915Z,3.05
2023-02-19T20:30:22.932Z,3.63
2023-02-19T20:32:49.230Z,2.70
2023-02-19T20:35:16.578Z,3.35
2023-02-19T20:37:43.781Z,4.82
2023-02-19T20:40:11.290Z,4.82
2023-02-19T20:42:37.696Z,4.53
2023-02-19T20:45:04.875Z,4.93
2023-02-19T20:47:31.241Z,5.15
2023-02-19T20:49:57.540Z,5.38
2023-02-19T20:52:26.735Z,4.50
2023-02-19T20:54:56.609Z,4.00
2023-02-19T20:57:23.041Z,3.90
2023-02-19T20:59:49.363Z,4.03
2023-02-19T21:02:18.371Z,3.80
2023-02-19T21:04:44.687Z,4.40
2023-02-19T21:07:11.026Z,4.22
2023-02-19T21:09:37.458Z,3.80
2023-02-19T21:12:03.856Z,3.58
2023-02-19T21:14:30.212Z,3.17
2023-02-19T21:16:56.542Z,2.78
2023-02-19T21:19:23.035Z,3.40
2023-02-19T21:21:49.387Z,3.72
2023-02-19T21:24:15.864Z,3.42
2023-02-19T21:26:42.798Z,3.22
2023-02-19T21:29:13.094Z,3.25
2023-02-19T21:31:40.423Z,2.58
2023-02-19T21:34:07.248Z,3.10
2023-02-19T21:36:33.535Z,2.50
2023-02-19T21:38:59.784Z,2.60
2023-02-19T21:41:26.883Z,3.10
2023-02-19T21:43:54.104Z,3.10
2023-02-19T21:46:20.594Z,2.83
2023-02-19T21:48:53.421Z,3.35
2023-02-19T21:51:20.435Z,2.63
2023-02-19T21:53:46.687Z,3.55
2023-02-19T21:56:23.310Z,3.72
2023-02-19T21:58:50.275Z,3.00
2023-02-19T22:01:23.408Z,3.78
2023-02-19T22:03:49.704Z,4.20
2023-02-19T22:06:16.255Z,4.18
2023-02-19T22:08:42.986Z,3.10
2023-02-19T22:11:09.296Z,3.25
2023-02-19T22:13:35.633Z,3.00
2023-02-19T22:16:02.162Z,2.63
2023-02-19T22:18:28.516Z,3.17
2023-02-19T22:20:54.769Z,2.53
2023-02-19T22:23:21.070Z,2.67
2023-02-19T22:25:47.381Z,2.65
2023-02-19T22:28:13.705Z,2.50
2023-02-19T22:30:41.288Z,2.95
2023-02-19T22:33:07.584Z,2.67
2023-02-19T22:35:33.889Z,4.20
2023-02-19T22:38:00.197Z,3.63
2023-02-19T22:40:27.004Z,3.28
2023-02-19T22:42:53.239Z,3.95
2023-02-19T22:45:19.659Z,3.33
2023-02-19T22:47:46.906Z,3.38
2023-02-19T22:50:17.103Z,3.63
2023-02-19T22:52:43.397Z,4.03
2023-02-19T22:55:09.677Z,3.95
2023-02-19T22:57:36.262Z,3.78
2023-02-19T23:00:03.937Z,4.25
2023-02-19T23:02:30.261Z,4.32
2023-02-19T23:04:56.550Z,3.70
2023-02-19T23:07:22.854Z,3.72
2023-02-19T23:09:49.244Z,4.40
2023-02-19T23:12:15.652Z,3.55
2023-02-19T23:14:41.990Z,3.60
2023-02-19T23:17:08.277Z,4.43
2023-02-19T23:19:37.632Z,5.13
2023-02-19T23:22:04.108Z,4.05
2023-02-19T23:24:30.513Z,4.45
2023-02-19T23:26:56.783Z,4.72
2023-02-19T23:29:25.552Z,4.22
2023-02-19T23:31:52.316Z,4.13
2023-02-19T23:34:19.385Z,4.63
2023-02-19T23:36:46.907Z,4.35
2023-02-19T23:39:14.299Z,4.32
2023-02-19T23:41:45.437Z,4.85
2023-02-19T23:44:11.700Z,3.80
2023-02-19T23:46:38.018Z,4.28
2023-02-19T23:49:04.452Z,3.28
2023-02-19T23:51:30.718Z,4.28
2023-02-19T23:53:57.183Z,3.88
2023-02-19T23:56:27.748Z,4.50
2023-02-19T23:58:54.183Z,4.90
